createdAt,value
2023-04-15T00:00:50.947Z,131.30
2023-04-15T00:01:51.019Z,131.50
2023-04-15T00:02:51.045Z,131.76
2023-04-15T00:03:51.010Z,130.81
2023-04-15T00:04:51.001Z,130.96
2023-04-15T00:05:50.893Z,130.19
2023-04-15T00:06:50.873Z,130.83
2023-04-15T00:07:50.871Z,130.97
2023-04-15T00:08:50.871Z,130.71
2023-04-15T00:09:50.844Z,131.62
2023-04-15T00:10:50.825Z,131.14
2023-04-15T00:11:50.837Z,131.11
2023-04-15T00:12:50.815Z,131.25
2023-04-15T00:13:50.808Z,130.29
2023-04-15T00:14:50.792Z,129.74
2023-04-15T00:15:50.780Z,130.36
2023-04-15T00:16:50.814Z,129.88
2023-04-15T00:17:50.847Z,129.79
2023-04-15T00:18:50.845Z,130.05
2023-04-15T00:19:50.856Z,129.95
2023-04-15T00:20:50.851Z,129.99
2023-04-15T00:21:50.831Z,129.95
2023-04-15T00:22:50.815Z,130.05
2023-04-15T00:23:50.813Z,129.90
2023-04-15T00:24:50.798Z,129.56
2023-04-15T00:25:50.789Z,130.48
2023-04-15T00:26:50.831Z,129.01
2023-04-15T00:27:50.759Z,130.68
2023-04-15T00:28:50.733Z,130.39
2023-04-15T00:29:50.727Z,130.40
2023-04-15T00:30:50.745Z,130.21
2023-04-15T00:31:50.706Z,129.75
2023-04-15T00:32:50.877Z,130.26
2023-04-15T00:33:50.681Z,130.49
2023-04-15T00:34:50.665Z,129.84
2023-04-15T00:35:50.668Z,129.64
2023-04-15T00:36:50.640Z,129.89
2023-04-15T00:37:50.634Z,128.64
2023-04-15T00:38:50.677Z,128.89
2023-04-15T00:39:50.678Z,128.58
2023-04-15T00:40:50.711Z,128.51
2023-04-15T00:41:50.721Z,128.69
2023-04-15T00:42:50.750Z,129.25
2023-04-15T00:43:50.778Z,128.49
2023-04-15T00:44:50.792Z,128.55
2023-04-15T00:45:50.866Z,129.27
2023-04-15T00:46:50.886Z,129.50
2023-04-15T00:47:50.899Z,128.76
2023-04-15T00:48:50.904Z,129.16
2023-04-15T00:49:50.941Z,129.45
2023-04-15T00:50:50.949Z,128.55
2023-04-15T00:51:50.970Z,129.16
2023-04-15T00:52:50.990Z,128.61
2023-04-15T00:53:51.015Z,128.38
2023-04-15T00:54:51.021Z,128.57
2023-04-15T00:55:51.041Z,128.55
2023-04-15T00:56:51.088Z,128.39
2023-04-15T00:57:51.091Z,128.15
2023-04-15T00:58:51.114Z,129.80
2023-04-15T00:59:51.147Z,128.25
2023-04-15T01:00:51.162Z,128.97
2023-04-15T01:01:51.319Z,128.57
2023-04-15T01:02:51.259Z,128.17
2023-04-15T01:03:51.455Z,128.75
2023-04-15T01:04:51.267Z,128.64
2023-04-15T01:05:51.267Z,128.49
2023-04-15T01:06:51.300Z,127.60
2023-04-15T01:07:51.315Z,128.85
2023-04-15T01:08:51.348Z,128.08
2023-04-15T01:09:51.383Z,127.80
2023-04-15T01:10:51.379Z,128.24
2023-04-15T01:11:51.427Z,129.10
2023-04-15T01:12:51.455Z,128.16
2023-04-15T01:13:51.457Z,127.86
2023-04-15T01:14:51.475Z,127.80
2023-04-15T01:15:51.530Z,127.75
2023-04-15T01:16:51.491Z,127.85
2023-04-15T01:17:51.535Z,127.92
2023-04-15T01:18:51.481Z,127.60
2023-04-15T01:19:51.458Z,128.76
2023-04-15T01:20:51.444Z,128.63
2023-04-15T01:21:51.433Z,127.95
2023-04-15T01:22:51.421Z,129.05
2023-04-15T01:23:51.430Z,127.58
2023-04-15T01:24:51.397Z,127.61
2023-04-15T01:25:51.378Z,128.04
2023-04-15T01:26:51.369Z,128.65
2023-04-15T01:27:51.366Z,127.76
2023-04-15T01:28:51.368Z,128.07
2023-04-15T01:29:51.344Z,128.50
2023-04-15T01:30:51.331Z,128.98
2023-04-15T01:31:51.411Z,128.33
2023-04-15T01:32:51.326Z,128.57
2023-04-15T01:33:51.338Z,127.64
2023-04-15T01:34:51.308Z,127.51
2023-04-15T01:35:51.329Z,127.97
2023-04-15T01:36:51.369Z,127.67
2023-04-15T01:37:51.381Z,127.05
2023-04-15T01:38:51.470Z,127.78
2023-04-15T01:39:51.425Z,126.92
2023-04-15T01:40:51.448Z,127.56
2023-04-15T01:41:51.485Z,127.33
2023-04-15T01:42:51.489Z,127.76
2023-04-15T01:43:51.537Z,126.28
2023-04-15T01:44:51.546Z,127.27
2023-04-15T01:45:51.530Z,127.34
2023-04-15T01:46:51.579Z,127.30
2023-04-15T01:47:51.540Z,127.54
2023-04-15T01:48:51.493Z,127.39
2023-04-15T01:49:51.489Z,126.92
2023-04-15T01:50:51.464Z,126.79
2023-04-15T01:51:51.449Z,126.88
2023-04-15T01:52:51.481Z,127.24
2023-04-15T01:53:51.435Z,126.43
2023-04-15T01:54:51.457Z,127.25
2023-04-15T01:55:51.409Z,128.35
2023-04-15T01:56:51.386Z,126.48
2023-04-15T01:57:51.383Z,127.92
2023-04-15T01:58:51.366Z,127.20
2023-04-15T01:59:51.362Z,126.55
2023-04-15T02:00:51.429Z,126.20
2023-04-15T02:01:51.341Z,126.55
2023-04-15T02:02:51.381Z,126.31
2023-04-15T02:03:51.434Z,127.52
2023-04-15T02:04:51.356Z,127.76
2023-04-15T02:05:51.367Z,125.66
2023-04-15T02:06:51.390Z,125.53
2023-04-15T02:07:51.396Z,125.23
2023-04-15T02:08:51.407Z,125.99
2023-04-15T02:09:51.470Z,125.58
2023-04-15T02:10:51.443Z,127.44
2023-04-15T02:11:51.469Z,125.83
2023-04-15T02:12:51.487Z,126.67
2023-04-15T02:13:51.503Z,126.49
2023-04-15T02:14:51.533Z,125.47
2023-04-15T02:15:51.534Z,125.25
2023-04-15T02:16:51.729Z,125.29
2023-04-15T02:17:51.596Z,125.78
2023-04-15T02:18:51.590Z,125.53
2023-04-15T02:19:51.609Z,124.32
2023-04-15T02:20:51.640Z,125.57
2023-04-15T02:21:51.584Z,125.63
2023-04-15T02:22:51.560Z,125.66
2023-04-15T02:23:53.966Z,125.88
2023-04-15T02:24:51.670Z,125.76
2023-04-15T02:25:53.269Z,125.94
2023-04-15T02:26:51.744Z,126.97
2023-04-15T02:27:51.781Z,125.02
2023-04-15T02:28:51.787Z,125.52
2023-04-15T02:29:51.819Z,124.57
2023-04-15T02:30:51.828Z,124.65
2023-04-15T02:31:51.883Z,126.30
2023-04-15T02:32:51.941Z,123.72
2023-04-15T02:33:51.907Z,124.46
2023-04-15T02:34:51.962Z,124.77
2023-04-15T02:35:51.949Z,123.54
2023-04-15T02:36:51.982Z,123.34
2023-04-15T02:37:51.982Z,124.00
2023-04-15T02:38:52.006Z,124.79
2023-04-15T02:39:52.037Z,124.36
2023-04-15T02:40:52.053Z,124.46
2023-04-15T02:41:52.079Z,124.86
2023-04-15T02:42:52.091Z,123.20
2023-04-15T02:43:52.102Z,123.86
2023-04-15T02:44:52.145Z,123.38
2023-04-15T02:45:52.151Z,124.37
2023-04-15T02:46:52.148Z,123.82
2023-04-15T02:47:52.208Z,123.82
2023-04-15T02:48:52.206Z,123.59
2023-04-15T02:49:52.226Z,124.35
2023-04-15T02:50:52.245Z,125.88
2023-04-15T02:51:52.256Z,123.33
2023-04-15T02:52:52.270Z,123.28
2023-04-15T02:53:52.285Z,123.78
2023-04-15T02:54:52.300Z,124.01
2023-04-15T02:55:52.314Z,123.14
2023-04-15T02:56:52.323Z,123.55
2023-04-15T02:57:52.351Z,123.42
2023-04-15T02:58:52.363Z,124.12
2023-04-15T02:59:52.390Z,122.93
2023-04-15T03:00:52.411Z,123.46
2023-04-15T03:01:52.520Z,124.18
2023-04-15T03:02:52.664Z,123.33
2023-04-15T03:03:52.489Z,122.93
2023-04-15T03:04:52.468Z,123.21
2023-04-15T03:05:52.493Z,123.72
2023-04-15T03:06:52.553Z,123.49
2023-04-15T03:07:52.520Z,124.58
2023-04-15T03:08:52.532Z,122.67
2023-04-15T03:09:52.582Z,124.55
2023-04-15T03:10:52.585Z,123.07
2023-04-15T03:11:52.596Z,123.51
2023-04-15T03:12:52.679Z,122.86
2023-04-15T03:13:52.651Z,122.72
2023-04-15T03:14:52.655Z,123.03
2023-04-15T03:15:52.717Z,123.18
2023-04-15T03:16:52.659Z,123.26
2023-04-15T03:17:52.679Z,123.29
2023-04-15T03:18:52.617Z,123.61
2023-04-15T03:19:52.624Z,123.36
2023-04-15T03:20:52.582Z,122.89
2023-04-15T03:21:52.591Z,122.41
2023-04-15T03:22:52.560Z,123.02
2023-04-15T03:23:52.561Z,121.82
2023-04-15T03:24:52.542Z,122.83
2023-04-15T03:25:52.560Z,122.27
2023-04-15T03:26:52.517Z,122.35
2023-04-15T03:27:52.522Z,122.73
2023-04-15T03:28:52.488Z,122.93
2023-04-15T03:29:52.486Z,123.47
2023-04-15T03:30:52.509Z,122.08
2023-04-15T03:31:52.466Z,122.95
2023-04-15T03:32:52.497Z,122.80
2023-04-15T03:33:52.499Z,122.03
2023-04-15T03:34:52.501Z,121.94
2023-04-15T03:35:52.531Z,122.97
2023-04-15T03:36:52.536Z,122.41
2023-04-15T03:37:52.564Z,121.95
2023-04-15T03:38:52.584Z,121.51
2023-04-15T03:39:52.618Z,122.71
2023-04-15T03:40:52.629Z,120.82
2023-04-15T03:41:52.643Z,122.88
2023-04-15T03:42:52.657Z,120.70
2023-04-15T03:43:52.684Z,121.31
2023-04-15T03:44:52.701Z,121.57
2023-04-15T03:45:52.726Z,120.46
2023-04-15T03:46:52.782Z,121.11
2023-04-15T03:47:52.791Z,120.91
2023-04-15T03:48:52.790Z,122.20
2023-04-15T03:49:52.810Z,121.65
2023-04-15T03:50:52.833Z,117.84
2023-04-15T03:51:52.860Z,119.02
2023-04-15T03:52:52.881Z,118.03
2023-04-15T03:53:52.906Z,118.42
2023-04-15T03:54:52.932Z,118.24
2023-04-15T03:55:52.963Z,116.84
2023-04-15T03:56:52.979Z,115.16
2023-04-15T03:57:53.009Z,113.74
2023-04-15T03:58:53.040Z,113.89
2023-04-15T03:59:53.073Z,114.45
2023-04-15T04:00:53.100Z,114.02
2023-04-15T04:01:53.156Z,113.13
2023-04-15T04:02:53.366Z,110.17
2023-04-15T04:03:53.380Z,110.52
2023-04-15T04:04:53.272Z,110.59
2023-04-15T04:05:53.264Z,111.71
2023-04-15T04:06:53.289Z,110.56
2023-04-15T04:07:53.333Z,109.18
2023-04-15T04:08:53.360Z,109.51
2023-04-15T04:09:53.390Z,109.26
2023-04-15T04:10:53.421Z,108.86
2023-04-15T04:11:53.547Z,110.12
2023-04-15T04:12:53.618Z,107.96
2023-04-15T04:13:53.565Z,105.58
2023-04-15T04:14:53.609Z,105.72
2023-04-15T04:15:53.616Z,107.40
2023-04-15T04:16:53.735Z,107.42
2023-04-15T04:17:53.707Z,105.99
2023-04-15T04:18:53.699Z,105.91
2023-04-15T04:19:53.746Z,104.64
2023-04-15T04:20:53.771Z,104.43
2023-04-15T04:21:53.803Z,104.84
2023-04-15T04:22:53.843Z,106.91
2023-04-15T04:23:53.875Z,104.72
2023-04-15T04:24:53.923Z,103.69
2023-04-15T04:25:54.000Z,103.76
2023-04-15T04:26:54.017Z,104.32
2023-04-15T04:27:54.103Z,103.90
2023-04-15T04:28:54.174Z,104.54
2023-04-15T04:29:54.100Z,102.32
2023-04-15T04:30:54.130Z,103.90
2023-04-15T04:31:54.205Z,103.36
2023-04-15T04:32:54.114Z,102.56
2023-04-15T04:33:54.099Z,103.80
2023-04-15T04:34:54.081Z,102.23
2023-04-15T04:35:54.040Z,102.19
2023-04-15T04:36:54.045Z,101.13
2023-04-15T04:37:54.034Z,100.46
2023-04-15T04:38:54.032Z,99.81
2023-04-15T04:39:54.031Z,101.46
2023-04-15T04:40:54.029Z,100.98
2023-04-15T04:41:54.005Z,97.27
2023-04-15T04:42:53.980Z,97.43
2023-04-15T04:43:53.970Z,96.91
2023-04-15T04:44:53.971Z,97.59
2023-04-15T04:45:53.987Z,99.52
2023-04-15T04:46:53.943Z,99.55
2023-04-15T04:47:53.999Z,97.42
2023-04-15T04:48:53.944Z,95.48
2023-04-15T04:49:53.924Z,96.30
2023-04-15T04:50:53.910Z,96.48
2023-04-15T04:51:53.896Z,96.39
2023-04-15T04:52:53.914Z,96.11
2023-04-15T04:53:53.902Z,95.44
2023-04-15T04:54:53.878Z,94.54
2023-04-15T04:55:53.865Z,95.63
2023-04-15T04:56:53.870Z,95.47
2023-04-15T04:57:53.882Z,96.69
2023-04-15T04:58:53.980Z,94.78
2023-04-15T04:59:53.942Z,92.09
2023-04-15T05:00:54.023Z,93.71
2023-04-15T05:01:54.052Z,92.14
2023-04-15T05:02:54.223Z,95.14
2023-04-15T05:03:54.375Z,95.11
2023-04-15T05:04:54.168Z,92.12
2023-04-15T05:05:54.217Z,91.91
2023-04-15T05:06:54.250Z,91.39
2023-04-15T05:07:54.292Z,90.91
2023-04-15T05:08:54.324Z,92.60
2023-04-15T05:09:54.463Z,90.22
2023-04-15T05:10:54.452Z,89.03
2023-04-15T05:11:54.470Z,89.01
2023-04-15T05:12:54.498Z,88.67
2023-04-15T05:13:54.548Z,88.95
2023-04-15T05:14:54.602Z,93.01
2023-04-15T05:15:54.613Z,91.93
2023-04-15T05:16:54.577Z,90.83
2023-04-15T05:17:54.579Z,89.17
2023-04-15T05:18:54.556Z,90.15
2023-04-15T05:19:54.539Z,92.49
2023-04-15T05:20:54.563Z,91.42
2023-04-15T05:21:54.521Z,88.98
2023-04-15T05:22:54.500Z,88.78
2023-04-15T05:23:54.491Z,90.06
2023-04-15T05:24:54.516Z,89.00
2023-04-15T05:25:54.574Z,89.05
2023-04-15T05:26:54.576Z,88.89
2023-04-15T05:27:54.614Z,88.80
2023-04-15T05:28:54.666Z,88.20
2023-04-15T05:29:54.703Z,87.95
2023-04-15T05:30:54.742Z,88.28
2023-04-15T05:31:54.786Z,88.51
2023-04-15T05:32:54.865Z,89.03
2023-04-15T05:33:54.860Z,87.50
2023-04-15T05:34:54.916Z,87.12
2023-04-15T05:35:54.949Z,87.67
2023-04-15T05:36:55.014Z,89.09
2023-04-15T05:37:55.032Z,90.12
2023-04-15T05:38:55.076Z,87.65
2023-04-15T05:39:55.118Z,85.40
2023-04-15T05:40:55.167Z,85.23
2023-04-15T05:41:55.206Z,83.79
2023-04-15T05:42:55.236Z,86.46
2023-04-15T05:43:55.278Z,88.21
2023-04-15T05:44:55.322Z,85.58
2023-04-15T05:45:55.380Z,84.30
2023-04-15T05:46:55.409Z,83.16
2023-04-15T05:47:55.499Z,83.38
2023-04-15T05:48:56.591Z,87.67
2023-04-15T05:49:55.541Z,86.68
2023-04-15T05:50:55.570Z,84.31
2023-04-15T05:51:55.616Z,82.87
2023-04-15T05:52:55.655Z,82.83
2023-04-15T05:53:55.694Z,81.97
2023-04-15T05:54:55.741Z,83.17
2023-04-15T05:55:55.792Z,83.31
2023-04-15T05:56:55.836Z,81.88
2023-04-15T05:57:55.869Z,82.31
2023-04-15T05:58:55.921Z,81.26
2023-04-15T05:59:56.029Z,82.46
2023-04-15T06:00:56.016Z,81.66
2023-04-15T06:01:56.101Z,80.97
2023-04-15T06:02:56.191Z,79.17
2023-04-15T06:03:56.273Z,76.71
2023-04-15T06:04:56.212Z,76.28
2023-04-15T06:05:56.234Z,77.50
2023-04-15T06:06:56.204Z,77.66
2023-04-15T06:07:56.195Z,77.70
2023-04-15T06:08:56.195Z,78.06
2023-04-15T06:09:56.180Z,78.19
2023-04-15T06:10:56.150Z,78.89
2023-04-15T06:11:56.143Z,79.50
2023-04-15T06:12:56.127Z,78.95
2023-04-15T06:13:56.105Z,76.25
2023-04-15T06:14:56.660Z,76.14
2023-04-15T06:15:56.145Z,75.25
2023-04-15T06:16:56.142Z,75.77
2023-04-15T06:17:56.225Z,78.73
2023-04-15T06:18:56.241Z,76.12
2023-04-15T06:19:56.281Z,75.51
2023-04-15T06:20:56.320Z,73.36
2023-04-15T06:21:56.357Z,74.94
2023-04-15T06:22:56.391Z,76.99
2023-04-15T06:23:56.420Z,77.85
2023-04-15T06:24:56.458Z,74.68
2023-04-15T06:25:56.503Z,73.81
2023-04-15T06:26:56.564Z,73.58
2023-04-15T06:27:56.582Z,74.45
2023-04-15T06:28:56.631Z,75.57
2023-04-15T06:29:56.658Z,76.59
2023-04-15T06:30:56.707Z,73.89
2023-04-15T06:31:56.807Z,73.06
2023-04-15T06:32:56.813Z,74.68
2023-04-15T06:33:56.849Z,74.15
2023-04-15T06:34:56.848Z,73.99
2023-04-15T06:35:56.886Z,72.92
2023-04-15T06:36:56.918Z,70.41
2023-04-15T06:37:56.954Z,69.65
2023-04-15T06:38:57.028Z,70.72
2023-04-15T06:39:57.030Z,71.12
2023-04-15T06:40:57.059Z,71.24
2023-04-15T06:41:57.102Z,70.30
2023-04-15T06:42:57.145Z,67.62
2023-04-15T06:43:57.181Z,65.05
2023-04-15T06:44:57.241Z,67.43
2023-04-15T06:45:57.325Z,69.26
2023-04-15T06:46:57.294Z,69.91
2023-04-15T06:47:57.373Z,64.70
2023-04-15T06:48:57.405Z,63.63
2023-04-15T06:49:57.414Z,63.64
2023-04-15T06:50:57.437Z,65.82
2023-04-15T06:51:57.481Z,68.14
2023-04-15T06:52:57.508Z,64.64
2023-04-15T06:53:57.534Z,61.74
2023-04-15T06:54:57.588Z,62.57
2023-04-15T06:55:57.603Z,62.65
2023-04-15T06:56:57.652Z,64.51
2023-04-15T06:57:57.688Z,62.76
2023-04-15T06:58:57.727Z,58.95
2023-04-15T06:59:57.771Z,56.18
2023-04-15T07:00:57.824Z,56.88
2023-04-15T07:01:57.912Z,60.30
2023-04-15T07:02:57.909Z,62.30
2023-04-15T07:03:57.923Z,57.45
2023-04-15T07:04:57.941Z,54.38
2023-04-15T07:05:57.959Z,53.37
2023-04-15T07:06:58.013Z,55.08
2023-04-15T07:07:58.031Z,58.84
2023-04-15T07:08:58.062Z,56.81
2023-04-15T07:09:58.093Z,53.47
2023-04-15T07:10:58.129Z,50.91
2023-04-15T07:11:58.164Z,51.50
2023-04-15T07:12:58.195Z,56.00
2023-04-15T07:13:58.225Z,55.80
2023-04-15T07:14:58.215Z,52.84
2023-04-15T07:15:58.203Z,51.41
2023-04-15T07:16:58.216Z,54.83
2023-04-15T07:17:58.240Z,54.60
2023-04-15T07:18:58.152Z,55.21
2023-04-15T07:19:58.143Z,49.53
2023-04-15T07:20:58.127Z,45.19
2023-04-15T07:21:58.114Z,46.07
2023-04-15T07:22:58.102Z,47.11
2023-04-15T07:23:58.086Z,49.40
2023-04-15T07:24:58.089Z,46.84
2023-04-15T07:25:58.075Z,44.31
2023-04-15T07:26:59.564Z,40.94
2023-04-15T07:27:58.056Z,41.01
2023-04-15T07:28:58.046Z,41.59
2023-04-15T07:29:58.026Z,42.93
2023-04-15T07:30:58.069Z,40.98
2023-04-15T07:31:58.032Z,38.16
2023-04-15T07:32:58.034Z,35.97
2023-04-15T07:33:57.994Z,39.18
2023-04-15T07:34:57.984Z,43.11
2023-04-15T07:35:57.964Z,37.77
2023-04-15T07:36:57.980Z,34.17
2023-04-15T07:37:57.944Z,33.66
2023-04-15T07:38:57.940Z,35.57
2023-04-15T07:39:57.930Z,38.07
2023-04-15T07:40:57.913Z,38.88
2023-04-15T07:41:57.918Z,40.51
2023-04-15T07:42:57.926Z,41.82
2023-04-15T07:43:57.943Z,43.86
2023-04-15T07:44:57.948Z,44.32
2023-04-15T07:45:57.995Z,44.53
2023-04-15T07:46:57.989Z,47.05
2023-04-15T07:47:58.053Z,47.47
2023-04-15T07:48:58.039Z,49.60
2023-04-15T07:49:58.052Z,50.64
2023-04-15T07:50:58.074Z,49.11
2023-04-15T07:51:58.087Z,50.46
2023-04-15T07:52:58.097Z,50.40
2023-04-15T07:53:58.109Z,52.07
2023-04-15T07:54:58.124Z,53.59
2023-04-15T07:55:58.128Z,53.41
2023-04-15T07:56:58.150Z,54.27
2023-04-15T07:57:58.166Z,53.94
2023-04-15T07:58:58.249Z,53.91
2023-04-15T07:59:58.203Z,54.75
2023-04-15T08:00:58.224Z,55.35
2023-04-15T08:01:58.274Z,53.97
2023-04-15T08:02:58.363Z,53.91
2023-04-15T08:03:58.463Z,55.61
2023-04-15T08:04:58.327Z,56.40
2023-04-15T08:05:58.300Z,56.78
2023-04-15T08:06:58.312Z,55.67
2023-04-15T08:07:58.335Z,56.60
2023-04-15T08:08:58.403Z,56.60
2023-04-15T08:09:58.357Z,58.33
2023-04-15T08:10:58.369Z,57.98
2023-04-15T08:11:58.378Z,59.72
2023-04-15T08:12:58.409Z,58.15
2023-04-15T08:13:58.402Z,57.40
2023-04-15T08:14:58.428Z,58.21
2023-04-15T08:15:58.476Z,57.86
2023-04-15T08:16:58.446Z,59.55
2023-04-15T08:17:58.500Z,58.42
2023-04-15T08:18:58.507Z,58.58
2023-04-15T08:19:58.482Z,58.88
2023-04-15T08:20:58.510Z,60.10
2023-04-15T08:21:58.527Z,59.06
2023-04-15T08:22:58.531Z,60.49
2023-04-15T08:23:58.534Z,60.75
2023-04-15T08:24:58.546Z,61.04
2023-04-15T08:25:58.559Z,60.91
2023-04-15T08:26:58.568Z,62.29
2023-04-15T08:27:58.582Z,60.44
2023-04-15T08:28:58.574Z,61.75
2023-04-15T08:29:58.590Z,59.73
2023-04-15T08:30:58.564Z,61.23
2023-04-15T08:31:58.622Z,59.93
2023-04-15T08:32:58.605Z,60.46
2023-04-15T08:33:58.525Z,60.53
2023-04-15T08:34:58.506Z,60.57
2023-04-15T08:35:58.476Z,60.82
2023-04-15T08:36:58.455Z,61.32
2023-04-15T08:37:58.449Z,59.98
2023-04-15T08:38:58.408Z,61.11
2023-04-15T08:39:58.424Z,61.67
2023-04-15T08:40:58.361Z,61.27
2023-04-15T08:41:58.344Z,61.79
2023-04-15T08:42:58.325Z,61.01
2023-04-15T08:43:58.334Z,61.60
2023-04-15T08:44:58.331Z,62.42
2023-04-15T08:45:58.263Z,62.90
2023-04-15T08:46:58.249Z,62.95
2023-04-15T08:47:58.242Z,60.40
2023-04-15T08:48:58.207Z,61.84
2023-04-15T08:49:58.189Z,61.60
2023-04-15T08:50:58.170Z,61.84
2023-04-15T08:51:58.163Z,61.90
2023-04-15T08:52:58.142Z,63.68
2023-04-15T08:53:58.111Z,64.17
2023-04-15T08:54:58.093Z,67.13
2023-04-15T08:55:58.077Z,64.95
2023-04-15T08:56:58.100Z,64.32
2023-04-15T08:57:58.042Z,65.30
2023-04-15T08:58:58.024Z,64.71
2023-04-15T08:59:58.003Z,63.27
2023-04-15T09:00:58.038Z,66.61
2023-04-15T09:01:57.993Z,64.50
2023-04-15T09:02:58.008Z,67.67
2023-04-15T09:03:57.957Z,66.32
2023-04-15T09:04:57.916Z,66.71
2023-04-15T09:05:57.894Z,67.46
2023-04-15T09:06:57.878Z,69.19
2023-04-15T09:07:57.867Z,68.68
2023-04-15T09:08:57.855Z,72.48
2023-04-15T09:09:57.842Z,73.79
2023-04-15T09:10:57.832Z,73.56
2023-04-15T09:11:57.859Z,74.61
2023-04-15T09:12:57.865Z,71.90
2023-04-15T09:13:57.868Z,70.86
2023-04-15T09:14:57.867Z,73.49
2023-04-15T09:15:57.895Z,76.05
2023-04-15T09:16:58.030Z,78.10
2023-04-15T09:17:58.069Z,77.08
2023-04-15T09:18:57.994Z,78.73
2023-04-15T09:19:57.995Z,79.88
2023-04-15T09:20:58.026Z,80.89
2023-04-15T09:21:59.086Z,81.54
2023-04-15T09:22:58.084Z,79.59
2023-04-15T09:23:58.239Z,77.25
2023-04-15T09:24:58.181Z,79.30
2023-04-15T09:25:58.236Z,81.41
2023-04-15T09:26:58.282Z,82.18
2023-04-15T09:27:58.365Z,83.50
2023-04-15T09:28:58.395Z,82.63
2023-04-15T09:29:58.422Z,83.98
2023-04-15T09:30:58.530Z,81.02
2023-04-15T09:31:58.498Z,81.55
2023-04-15T09:32:58.595Z,84.96
2023-04-15T09:33:58.573Z,86.03
2023-04-15T09:34:58.567Z,85.66
2023-04-15T09:35:58.604Z,87.27
2023-04-15T09:36:58.628Z,88.93
2023-04-15T09:37:58.686Z,89.49
2023-04-15T09:38:58.715Z,90.34
2023-04-15T09:39:58.754Z,92.85
2023-04-15T09:40:58.783Z,90.42
2023-04-15T09:41:58.832Z,90.33
2023-04-15T09:42:58.863Z,89.85
2023-04-15T09:43:58.960Z,91.90
2023-04-15T09:44:58.935Z,92.17
2023-04-15T09:45:59.053Z,92.89
2023-04-15T09:46:59.067Z,93.31
2023-04-15T09:47:59.304Z,94.48
2023-04-15T09:48:59.134Z,94.21
2023-04-15T09:49:59.290Z,92.04
2023-04-15T09:50:59.223Z,94.18
2023-04-15T09:52:04.974Z,93.39
2023-04-15T09:53:00.252Z,93.40
2023-04-15T09:53:59.241Z,93.45
2023-04-15T09:54:59.264Z,91.75
2023-04-15T09:55:59.198Z,91.74
2023-04-15T09:56:59.164Z,91.33
2023-04-15T09:57:59.144Z,91.01
2023-04-15T09:58:59.113Z,89.31
2023-04-15T09:59:59.097Z,91.76
2023-04-15T10:00:59.137Z,90.99
2023-04-15T10:01:59.203Z,89.74
2023-04-15T10:02:59.246Z,91.77
2023-04-15T10:03:59.353Z,92.80
2023-04-15T10:05:00.212Z,92.87
2023-04-15T10:05:59.187Z,93.22
2023-04-15T10:06:59.165Z,93.44
2023-04-15T10:07:59.145Z,91.77
2023-04-15T10:08:59.146Z,93.34
2023-04-15T10:09:59.116Z,93.55
2023-04-15T10:10:59.088Z,95.50
2023-04-15T10:11:59.072Z,95.95
2023-04-15T10:12:59.072Z,96.87
2023-04-15T10:13:59.112Z,96.09
2023-04-15T10:14:59.006Z,96.95
2023-04-15T10:15:59.046Z,96.93
2023-04-15T10:16:58.960Z,97.27
2023-04-15T10:17:58.971Z,97.46
2023-04-15T10:18:58.925Z,96.13
2023-04-15T10:19:58.913Z,97.01
2023-04-15T10:20:58.892Z,97.43
2023-04-15T10:21:58.868Z,96.60
2023-04-15T10:22:58.864Z,96.65
2023-04-15T10:23:58.918Z,96.96
2023-04-15T10:24:58.955Z,96.69
2023-04-15T10:25:59.020Z,98.24
2023-04-15T10:26:59.035Z,97.77
2023-04-15T10:27:59.072Z,97.89
2023-04-15T10:29:00.154Z,97.86
2023-04-15T10:29:59.150Z,97.53
2023-04-15T10:30:59.232Z,97.13
2023-04-15T10:31:59.294Z,97.34
2023-04-15T10:32:59.345Z,96.38
2023-04-15T10:33:59.400Z,96.90
2023-04-15T10:34:59.358Z,95.06
2023-04-15T10:35:59.412Z,94.23
2023-04-15T10:36:59.440Z,93.89
2023-04-15T10:37:59.488Z,92.80
2023-04-15T10:38:59.522Z,95.26
2023-04-15T10:39:59.585Z,94.85
2023-04-15T10:40:59.618Z,96.42
2023-04-15T10:41:59.652Z,95.28
2023-04-15T10:42:59.689Z,96.49
2023-04-15T10:43:59.839Z,95.74
2023-04-15T10:44:59.774Z,95.20
2023-04-15T10:45:59.799Z,95.70
2023-04-15T10:46:59.871Z,95.50
2023-04-15T10:48:01.606Z,95.11
2023-04-15T10:48:59.862Z,95.22
2023-04-15T10:49:59.854Z,95.13
2023-04-15T10:50:59.831Z,95.54
2023-04-15T10:51:59.800Z,95.91
2023-04-15T10:52:59.779Z,96.88
2023-04-15T10:53:59.764Z,95.62
2023-04-15T10:54:59.739Z,95.74
2023-04-15T10:55:59.709Z,95.80
2023-04-15T10:56:59.675Z,95.57
2023-04-15T10:57:59.702Z,94.08
2023-04-15T10:58:59.752Z,93.14
2023-04-15T10:59:59.797Z,92.34
2023-04-15T11:00:59.829Z,90.27
2023-04-15T11:02:00.006Z,92.10
2023-04-15T11:03:00.120Z,90.07
2023-04-15T11:04:00.094Z,89.95
2023-04-15T11:05:00.072Z,88.26
2023-04-15T11:06:00.073Z,88.98
2023-04-15T11:07:00.101Z,88.39
2023-04-15T11:08:00.172Z,86.37
2023-04-15T11:09:00.203Z,84.75
2023-04-15T11:10:00.286Z,86.33
2023-04-15T11:11:00.309Z,86.73
2023-04-15T11:12:00.354Z,87.81
2023-04-15T11:13:00.396Z,88.94
2023-04-15T11:14:00.664Z,89.04
2023-04-15T11:15:00.504Z,87.13
2023-04-15T11:16:00.597Z,88.51
2023-04-15T11:17:00.593Z,85.47
2023-04-15T11:18:00.713Z,87.96
2023-04-15T11:19:00.703Z,87.01
2023-04-15T11:20:00.738Z,87.01
2023-04-15T11:21:00.784Z,86.46
2023-04-15T11:22:00.819Z,87.56
2023-04-15T11:23:14.745Z,86.48
2023-04-15T11:24:02.187Z,86.63
2023-04-15T11:25:00.843Z,86.73
2023-04-15T11:26:00.824Z,87.58
2023-04-15T11:27:00.777Z,87.32
2023-04-15T11:28:00.760Z,87.48
2023-04-15T11:29:00.732Z,87.87
2023-04-15T11:30:00.725Z,88.71
2023-04-15T11:31:00.713Z,86.50
2023-04-15T11:32:00.715Z,87.07
2023-04-15T11:33:00.775Z,85.43
2023-04-15T11:34:00.717Z,81.17
2023-04-15T11:35:00.790Z,83.63
2023-04-15T11:36:00.801Z,83.18
2023-04-15T11:37:01.004Z,82.94
2023-04-15T11:38:00.901Z,85.41
2023-04-15T11:39:00.966Z,81.65
2023-04-15T11:40:00.982Z,80.08
2023-04-15T11:41:01.026Z,80.28
2023-04-15T11:42:01.080Z,76.07
2023-04-15T11:43:01.108Z,77.68
2023-04-15T11:44:01.214Z,76.29
2023-04-15T11:45:01.193Z,75.66
2023-04-15T11:46:01.355Z,74.87
2023-04-15T11:47:01.259Z,74.66
2023-04-15T11:48:01.350Z,73.14
2023-04-15T11:49:01.359Z,70.71
2023-04-15T11:50:01.406Z,70.58
2023-04-15T11:51:01.437Z,70.09
2023-04-15T11:52:01.469Z,68.32
2023-04-15T11:53:01.525Z,64.43
2023-04-15T11:54:01.745Z,68.26
2023-04-15T11:55:01.609Z,72.47
2023-04-15T11:56:01.620Z,69.68
2023-04-15T11:57:01.715Z,69.64
2023-04-15T11:58:01.690Z,69.64
2023-04-15T11:59:01.768Z,66.68
2023-04-15T12:00:01.804Z,64.95
2023-04-15T12:01:01.803Z,63.48
2023-04-15T12:02:01.962Z,66.01
2023-04-15T12:03:01.990Z,64.37
2023-04-15T12:04:02.136Z,68.62
2023-04-15T12:05:02.024Z,66.49
2023-04-15T12:06:01.994Z,68.07
2023-04-15T12:07:02.031Z,67.43
2023-04-15T12:08:02.076Z,65.49
2023-04-15T12:09:02.116Z,68.57
2023-04-15T12:10:02.194Z,68.71
2023-04-15T12:11:02.204Z,66.24
2023-04-15T12:12:02.277Z,66.99
2023-04-15T12:13:02.299Z,70.29
2023-04-15T12:14:02.568Z,68.46
2023-04-15T12:15:02.364Z,64.75
2023-04-15T12:16:02.528Z,68.77
2023-04-15T12:17:02.437Z,72.80
2023-04-15T12:18:02.549Z,75.71
2023-04-15T12:19:02.498Z,72.62
2023-04-15T12:20:02.460Z,75.46
2023-04-15T12:21:02.450Z,72.65
2023-04-15T12:22:02.426Z,71.73
2023-04-15T12:23:02.406Z,68.72
2023-04-15T12:24:02.658Z,71.87
2023-04-15T12:25:02.418Z,75.71
2023-04-15T12:26:02.347Z,69.85
2023-04-15T12:27:02.354Z,72.46
2023-04-15T12:28:02.316Z,75.52
2023-04-15T12:29:02.316Z,72.66
2023-04-15T12:30:02.306Z,73.15
2023-04-15T12:31:02.284Z,74.53
2023-04-15T12:32:02.254Z,73.47
2023-04-15T12:33:02.403Z,68.99
2023-04-15T12:34:02.440Z,67.62
2023-04-15T12:35:02.218Z,63.45
2023-04-15T12:36:02.186Z,62.33
2023-04-15T12:37:02.163Z,62.39
2023-04-15T12:38:02.130Z,61.46
2023-04-15T12:39:02.114Z,58.65
2023-04-15T12:40:02.096Z,58.90
2023-04-15T12:41:02.082Z,57.48
2023-04-15T12:42:02.065Z,59.07
2023-04-15T12:43:02.092Z,57.47
2023-04-15T12:44:02.171Z,57.88